Kenseh, Arkansas
Current Conditions -  °F | °C
As of 2:56 PM on Sunday 23 Nov 2014 (Local Time) from KSRC Reporting Station
Overcast Overcast  
Wind Chill: 60°   Ceiling: 400
Heat Index: 60°   Visibility: 9mi
Dew Point: 59°   Wind: 6mph
Humidity: 96%   Direction: 190°S
Pressure: 29.37"   Gusts: NA
Location:  35.2119°N, 91.6651°W
Report Text: KSRC 232056Z AUTO 19005KT 9SM OVC004 16/15 A2937 RMK AO2 RAE44 SLP950 P0002 60008 T01560150 56034 TSNO
Loading
Personal Weather Stations






























Interactive Weather Map New forecast layout! Learn more

10-Day Weather Forecast

Advertisements
Track Severe Weather on mobile